• Join FlightAware (Why Join?)
  • Login
  • US Flag 
10:33AM EDT


 

Airport Tracker/Info


-or-


 

Live Flight TrackerFlight Track Log ✈ SWA508 ✈ 29-Apr-2013 ✈ KMCO - KPIT

Flight Track Log - Related Links

Times and Time Zones

All times are in EDT time to prevent confusion due to time zone crossing. See the SWA508 flight status page for this flight to view local times or setup timezone preferences in your user account.

Time Position Orientation Groundspeed Altitude Reporting Facility
EDT Latitude Longitude Course Direction KTS MPH feet Rate Location/Type
08:13AM 28.4167 -81.3000 156° South 152 175 800  Level Orlando TRACON
08:14AM 28.3833 -81.2833 156° South 184 212 2,000 2,580 Climbing Orlando TRACON
08:15AM 28.3667 -81.2333 111° Southeast 224 258 5,000 2,760 Climbing Orlando TRACON
08:16AM 28.4500 -81.2500 350° North 279 321 7,600 2,640 Climbing Orlando TRACON
08:18AM 28.6094 -81.2822 350° North 313 360 12,900 3,060 Climbing Jacksonville Center
08:19AM 28.7078 -81.3042 349° North 341 392 16,700 3,600 Climbing Jacksonville Center
08:20AM 28.8122 -81.3264 349° North 362 417 20,100 3,060 Climbing Jacksonville Center
08:21AM 28.9211 -81.3506 349° North 383 441 22,900 2,400 Climbing Jacksonville Center
08:22AM 29.0322 -81.3750 349° North 395 455 25,000 2,100 Climbing Jacksonville Center
08:23AM 29.1472 -81.3922 353° North 400 460 27,100 1,860 Climbing Jacksonville Center
08:24AM 29.2683 -81.4094 353° North 418 481 28,800 1,560 Climbing Jacksonville Center
08:25AM 29.3936 -81.4172 357° North 438 504 30,300 1,500 Climbing Jacksonville Center
08:26AM 29.5211 -81.4344 353° North 452 520 31,800 2,100 Climbing Jacksonville Center
08:27AM 29.6550 -81.4467 355° North 466 536 34,500 2,400 Climbing Jacksonville Center
08:28AM 29.7803 -81.4567 356° North 459 528 36,700 1,620 Climbing Jacksonville Center
08:29AM 29.9036 -81.4575 360° North 449 517 37,800 1,080 Climbing Jacksonville Center
08:30AM 30.0308 -81.4433 North 449 517 38,900 1,320 Climbing Jacksonville Center
08:31AM 30.1600 -81.4294 North 454 522 40,500 1,020 Climbing Jacksonville Center
08:32AM 30.2831 -81.4206 North 454 522 41,000 240 Climbing Jacksonville Center
08:33AM 30.3956 -81.4067 North 448 516 41,000  Level Jacksonville Center
08:34AM 30.5167 -81.3953 North 442 509 41,000  Level Jacksonville Center
08:35AM 30.6439 -81.3833 North 442 509 41,000  Level Jacksonville Center
08:36AM 30.7711 -81.3694 North 437 503 41,000  Level Jacksonville Center
08:37AM 30.8858 -81.3603 North 442 509 41,000  Level Jacksonville Center
08:38AM 31.0108 -81.3486 North 442 509 41,000  Level Jacksonville Center
08:39AM 31.1339 -81.3367 North 442 509 41,000  Level Jacksonville Center
08:40AM 31.2592 -81.3250 North 442 509 41,000  Level Jacksonville Center
08:41AM 31.3819 -81.3108 North 442 509 41,000  Level Jacksonville Center
08:42AM 31.5197 -81.2961 North 442 509 41,000  Level Jacksonville Center
08:43AM 31.6469 -81.2844 North 447 514 41,000  Level Jacksonville Center
08:44AM 31.7594 -81.2750 North 447 514 41,000  Level Jacksonville Center
08:45AM 31.8847 -81.2631 North 447 514 41,000  Level Jacksonville Center
08:46AM 32.0161 -81.2508 North 452 520 41,000  Level Jacksonville Center
08:47AM 32.1411 -81.2364 North 458 527 41,000  Level Jacksonville Center
08:48AM 32.2683 -81.2242 North 458 527 41,000  Level Jacksonville Center
08:49AM 32.3956 -81.2122 North 463 533 41,000  Level Jacksonville Center
08:50AM 32.5331 -81.2022 North 457 526 41,000  Level Jacksonville Center
08:51AM 32.6500 -81.1900 North 457 526 41,000  Level Jacksonville Center
08:52AM 32.7894 -81.1728 North 457 526 41,000  Level Jacksonville Center
08:53AM 32.9167 -81.1628 North 457 526 41,000  Level Jacksonville Center
08:54AM 33.0439 -81.1481 North 457 526 41,000  Level Jacksonville Center
08:55AM 33.1750 -81.1356 North 457 526 41,000  Level Jacksonville Center
08:56AM 33.3022 -81.1206 North 463 533 41,000  Level Jacksonville Center
08:57AM 33.4294 -81.1106 North 463 533 41,000  Level Jacksonville Center
08:58AM 33.5544 -81.0956 North 458 527 41,000  Level Jacksonville Center
08:59AM 33.6814 -81.0831 North 458 527 41,000  Level Jacksonville Center
09:00AM 33.7939 -81.0683 North 458 527 41,000  Level Jacksonville Center
09:01AM 33.9169 -81.0556 North 453 521 41,000  Level Jacksonville Center
09:02AM 34.0442 -81.0431 North 453 521 41,000  Level Jacksonville Center
09:04AM 34.3664 -81.0139 North 465 535 41,000  Level Atlanta Center
09:05AM 34.4956 -81.0017 North 460 529 41,000  Level Atlanta Center
09:06AM 34.6203 -80.9872 North 454 522 41,000  Level Atlanta Center
09:07AM 34.7492 -80.9647 North 459 528 41,000  Level Atlanta Center
09:08AM 34.8783 -80.9575 North 464 534 41,000  Level Atlanta Center
09:09AM 35.0033 -80.9428 North 457 526 41,000  Level Atlanta Center
09:10AM 35.1303 -80.9303 North 457 526 41,000  Level Atlanta Center
09:11AM 35.2467 -80.9158 North 462 532 41,000  Level Atlanta Center
09:12AM 35.3736 -80.9033 North 457 526 41,000  Level Atlanta Center
09:13AM 35.5025 -80.8881 North 465 535 41,000  Level Atlanta Center
09:14AM 35.6314 -80.8731 North 465 535 41,000 -300 Level Atlanta Center
09:15AM 35.7583 -80.8578 North 460 529 40,400 -780 Descending Atlanta Center
09:16AM 35.8875 -80.8450 North 460 529 39,500 -960 Descending Atlanta Center
09:17AM 36.0122 -80.8300 North 460 529 38,500 -960 Descending Atlanta Center
09:18AM 36.1392 -80.8197 North 449 517 37,600 -960 Descending Atlanta Center
09:19AM 36.2681 -80.8017 North 465 535 36,600 -960 Descending Atlanta Center
09:20AM 36.3947 -80.7889 North 459 528 35,700 -540 Descending Atlanta Center
09:22AM 36.6831 -80.7592 North 481 554 35,000 -240 Descending Washington Center
09:23AM 36.8131 -80.7444 North 476 548 35,000  Level Washington Center
09:24AM 36.9428 -80.7322 North 471 542 35,000  Level Washington Center
09:25AM 37.0708 -80.7175 North 464 534 35,000  Level Washington Center
09:26AM 37.1975 -80.6817 13° North 464 534 35,000  Level Washington Center
09:27AM 37.3094 -80.6447 15° North 464 534 35,000 -480 Level Washington Center
09:28AM 37.4344 -80.6033 15° North 464 534 34,100 -900 Descending Washington Center
09:29AM 37.5614 -80.5592 15° North 464 534 33,200 -960 Descending Washington Center
09:30AM 37.6881 -80.5231 13° North 464 534 32,200 -1,020 Descending Washington Center
09:31AM 37.8089 -80.4756 17° North 459 528 31,200 -1,080 Descending Washington Center
09:32AM 37.9367 -80.4103 22° Northeast 454 522 30,100 -1,080 Descending Washington Center
09:33AM 38.0539 -80.3519 21° North 449 517 29,100 -1,020 Descending Washington Center
09:34AM 38.1667 -80.2956 21° North 443 510 28,100 -1,020 Descending Washington Center
09:35AM 38.2772 -80.2392 22° Northeast 438 504 27,100 -1,620 Descending Washington Center
09:36AM 38.3792 -80.1897 21° North 432 497 24,900 -1,560 Descending Washington Center
09:37AM 38.4814 -80.1378 22° Northeast 416 479 24,000 -840 Descending Washington Center
09:39AM 38.7358 -80.0058 22° Northeast 411 473 22,200 -900 Descending Cleveland Center
09:40AM 38.8419 -79.9489 23° Northeast 411 473 21,200 -600 Descending Cleveland Center
09:41AM 38.9481 -79.9267 North 400 460 21,000 -120 Descending Cleveland Center
09:42AM 39.0564 -79.9042 North 395 455 21,000  Level Cleveland Center
09:43AM 39.1625 -79.8844 North 390 449 21,000  Level Cleveland Center
09:44AM 39.2708 -79.8725 North 390 449 21,000  Level Cleveland Center
09:45AM 39.3811 -79.8525 North 390 449 21,000  Level Cleveland Center
09:46AM 39.4872 -79.8353 North 390 449 21,000  Level Cleveland Center
09:47AM 39.5936 -79.8153 North 390 449 21,000 -60 Level Cleveland Center
09:48AM 39.7017 -79.7981 North 390 449 20,900 -1,380 Descending Cleveland Center
09:49AM 39.8081 -79.7831 North 390 449 18,300 -2,640 Descending Cleveland Center
09:50AM 39.9119 -79.7631 North 385 443 15,700 -2,640 Descending Cleveland Center
09:51AM 40.0119 -79.7456 North 385 443 13,100 -2,580 Descending Cleveland Center
09:52AM 40.1139 -79.7306 North 373 429 10,600 -1,680 Descending Cleveland Center
09:53AM 40.2036 -79.7294 North 357 411 9,800 -1,200 Descending Cleveland Center
09:54AM 40.2750 -79.7775 333° Northwest 299 344 8,300 -1,800 Descending Cleveland Center
09:55AM 40.3419 -79.8258 331° Northwest 281 323 6,300 -1,800 Descending Cleveland Center
09:56AM 40.4047 -79.8661 334° Northwest 281 323 4,700 -1,200 Descending Cleveland Center
09:57AM 40.4633 -79.9228 324° Northwest 270 311 4,000 -420 Descending Cleveland Center
09:58AM 40.4806 -79.9936 288° West 228 262 3,900 -360 Descending Cleveland Center
09:59AM 40.4831 -80.0672 273° West 209 241 3,300 -780 Descending Cleveland Center
10:00AM 40.4831 -80.1272 270° West 191 220 2,400 -900 Descending Cleveland Center
10:02AM 40.4833 -80.2167 303° West  Level FlightAware Approximate
10:09AM 40.4915 -80.2329 303° West  Level Estimated
10:10AM 40.4915 -80.2329 303° West  Level Estimated